sensor_id;sensor_type;location;lat;lon;timestamp;P1;durP1;ratioP1;P2;durP2;ratioP2
75488;SDS011;64069;46.396;48.102;2023-09-19T00:02:02;14.07;;;7.35;;
75488;SDS011;64069;46.396;48.102;2023-09-19T00:04:34;14.02;;;7.68;;
75488;SDS011;64069;46.396;48.102;2023-09-19T00:07:05;15.18;;;7.75;;
75488;SDS011;64069;46.396;48.102;2023-09-19T00:09:31;15.57;;;7.55;;
75488;SDS011;64069;46.396;48.102;2023-09-19T00:12:03;13.02;;;7.68;;
75488;SDS011;64069;46.396;48.102;2023-09-19T00:14:34;12.65;;;6.40;;
75488;SDS011;64069;46.396;48.102;2023-09-19T00:17:01;13.30;;;7.20;;
75488;SDS011;64069;46.396;48.102;2023-09-19T00:19:34;13.38;;;7.20;;
75488;SDS011;64069;46.396;48.102;2023-09-19T00:22:00;16.33;;;7.85;;
75488;SDS011;64069;46.396;48.102;2023-09-19T00:24:26;12.45;;;6.72;;
75488;SDS011;64069;46.396;48.102;2023-09-19T00:26:56;12.55;;;6.97;;
75488;SDS011;64069;46.396;48.102;2023-09-19T00:29:24;14.80;;;6.88;;
75488;SDS011;64069;46.396;48.102;2023-09-19T00:31:55;14.38;;;7.88;;
75488;SDS011;64069;46.396;48.102;2023-09-19T00:34:22;12.05;;;6.82;;
75488;SDS011;64069;46.396;48.102;2023-09-19T00:36:50;15.88;;;7.40;;
75488;SDS011;64069;46.396;48.102;2023-09-19T00:39:18;12.02;;;7.47;;
75488;SDS011;64069;46.396;48.102;2023-09-19T00:41:45;15.82;;;7.72;;
75488;SDS011;64069;46.396;48.102;2023-09-19T00:44:11;14.90;;;7.35;;
75488;SDS011;64069;46.396;48.102;2023-09-19T00:46:37;14.07;;;7.68;;
75488;SDS011;64069;46.396;48.102;2023-09-19T00:49:03;14.70;;;7.88;;
75488;SDS011;64069;46.396;48.102;2023-09-19T00:51:29;19.08;;;8.45;;
75488;SDS011;64069;46.396;48.102;2023-09-19T00:53:55;12.85;;;7.10;;
75488;SDS011;64069;46.396;48.102;2023-09-19T00:56:21;13.90;;;7.78;;
75488;SDS011;64069;46.396;48.102;2023-09-19T00:58:48;14.90;;;7.60;;
75488;SDS011;64069;46.396;48.102;2023-09-19T01:01:14;13.80;;;7.07;;
75488;SDS011;64069;46.396;48.102;2023-09-19T01:03:41;11.88;;;6.88;;
75488;SDS011;64069;46.396;48.102;2023-09-19T01:06:08;13.63;;;7.57;;
75488;SDS011;64069;46.396;48.102;2023-09-19T01:08:34;17.20;;;8.45;;
75488;SDS011;64069;46.396;48.102;2023-09-19T01:13:44;14.93;;;7.53;;
75488;SDS011;64069;46.396;48.102;2023-09-19T01:16:22;15.57;;;7.80;;
75488;SDS011;64069;46.396;48.102;2023-09-19T01:19:07;15.93;;;7.65;;
75488;SDS011;64069;46.396;48.102;2023-09-19T01:21:57;16.08;;;7.75;;
75488;SDS011;64069;46.396;48.102;2023-09-19T01:30:20;13.85;;;7.43;;
75488;SDS011;64069;46.396;48.102;2023-09-19T01:32:53;15.73;;;7.70;;
75488;SDS011;64069;46.396;48.102;2023-09-19T01:35:19;14.48;;;7.82;;
75488;SDS011;64069;46.396;48.102;2023-09-19T01:37:45;11.73;;;7.13;;
75488;SDS011;64069;46.396;48.102;2023-09-19T01:40:12;13.23;;;7.30;;
75488;SDS011;64069;46.396;48.102;2023-09-19T01:42:49;17.90;;;8.37;;
75488;SDS011;64069;46.396;48.102;2023-09-19T01:47:51;20.73;;;8.75;;
75488;SDS011;64069;46.396;48.102;2023-09-19T01:50:32;18.30;;;8.73;;
75488;SDS011;64069;46.396;48.102;2023-09-19T01:55:57;20.52;;;8.43;;
75488;SDS011;64069;46.396;48.102;2023-09-19T02:00:58;16.80;;;8.43;;
75488;SDS011;64069;46.396;48.102;2023-09-19T02:03:26;17.63;;;8.27;;
75488;SDS011;64069;46.396;48.102;2023-09-19T02:05:54;16.10;;;8.55;;
75488;SDS011;64069;46.396;48.102;2023-09-19T02:08:20;17.02;;;8.55;;
75488;SDS011;64069;46.396;48.102;2023-09-19T02:10:50;16.17;;;8.20;;
75488;SDS011;64069;46.396;48.102;2023-09-19T02:13:16;19.65;;;7.95;;
75488;SDS011;64069;46.396;48.102;2023-09-19T02:15:44;17.20;;;8.93;;
75488;SDS011;64069;46.396;48.102;2023-09-19T02:18:12;15.70;;;8.02;;
75488;SDS011;64069;46.396;48.102;2023-09-19T02:20:41;16.80;;;8.63;;
75488;SDS011;64069;46.396;48.102;2023-09-19T02:23:08;14.63;;;8.73;;
75488;SDS011;64069;46.396;48.102;2023-09-19T02:25:35;15.30;;;8.07;;
75488;SDS011;64069;46.396;48.102;2023-09-19T02:28:01;14.38;;;8.00;;
75488;SDS011;64069;46.396;48.102;2023-09-19T02:30:28;22.48;;;8.65;;
75488;SDS011;64069;46.396;48.102;2023-09-19T02:32:55;14.85;;;7.82;;
75488;SDS011;64069;46.396;48.102;2023-09-19T02:35:21;15.30;;;7.70;;
75488;SDS011;64069;46.396;48.102;2023-09-19T02:37:48;17.48;;;8.25;;
75488;SDS011;64069;46.396;48.102;2023-09-19T02:40:14;17.48;;;7.97;;
75488;SDS011;64069;46.396;48.102;2023-09-19T02:42:54;14.25;;;7.07;;
75488;SDS011;64069;46.396;48.102;2023-09-19T02:45:22;14.85;;;7.63;;
75488;SDS011;64069;46.396;48.102;2023-09-19T02:47:49;16.02;;;7.30;;
75488;SDS011;64069;46.396;48.102;2023-09-19T02:50:15;15.18;;;7.05;;
75488;SDS011;64069;46.396;48.102;2023-09-19T02:52:42;13.23;;;6.80;;
75488;SDS011;64069;46.396;48.102;2023-09-19T02:55:09;12.82;;;6.10;;
75488;SDS011;64069;46.396;48.102;2023-09-19T02:57:36;13.05;;;6.30;;
75488;SDS011;64069;46.396;48.102;2023-09-19T03:00:09;9.82;;;5.57;;
75488;SDS011;64069;46.396;48.102;2023-09-19T03:02:36;10.98;;;5.15;;
75488;SDS011;64069;46.396;48.102;2023-09-19T03:05:04;12.85;;;5.47;;
75488;SDS011;64069;46.396;48.102;2023-09-19T03:07:30;11.93;;;4.97;;
75488;SDS011;64069;46.396;48.102;2023-09-19T03:09:57;9.15;;;5.40;;
75488;SDS011;64069;46.396;48.102;2023-09-19T03:12:23;9.70;;;5.15;;
75488;SDS011;64069;46.396;48.102;2023-09-19T03:14:49;9.38;;;5.35;;
75488;SDS011;64069;46.396;48.102;2023-09-19T03:17:16;10.82;;;5.60;;
75488;SDS011;64069;46.396;48.102;2023-09-19T03:19:45;8.77;;;4.95;;
75488;SDS011;64069;46.396;48.102;2023-09-19T03:22:13;10.35;;;5.40;;
75488;SDS011;64069;46.396;48.102;2023-09-19T03:24:39;15.15;;;6.57;;
75488;SDS011;64069;46.396;48.102;2023-09-19T03:27:08;12.63;;;6.28;;
75488;SDS011;64069;46.396;48.102;2023-09-19T03:29:36;12.73;;;7.00;;
75488;SDS011;64069;46.396;48.102;2023-09-19T03:32:03;14.65;;;7.30;;
75488;SDS011;64069;46.396;48.102;2023-09-19T03:34:30;14.27;;;6.22;;
75488;SDS011;64069;46.396;48.102;2023-09-19T03:36:56;9.18;;;5.07;;
75488;SDS011;64069;46.396;48.102;2023-09-19T03:39:22;9.95;;;5.60;;
75488;SDS011;64069;46.396;48.102;2023-09-19T03:41:48;8.68;;;4.82;;
75488;SDS011;64069;46.396;48.102;2023-09-19T03:44:15;8.43;;;4.97;;
75488;SDS011;64069;46.396;48.102;2023-09-19T03:46:41;8.10;;;4.55;;
75488;SDS011;64069;46.396;48.102;2023-09-19T03:49:07;7.15;;;4.32;;
75488;SDS011;64069;46.396;48.102;2023-09-19T03:51:34;8.82;;;4.72;;
75488;SDS011;64069;46.396;48.102;2023-09-19T03:53:59;8.45;;;4.75;;
75488;SDS011;64069;46.396;48.102;2023-09-19T03:56:26;10.23;;;4.65;;
75488;SDS011;64069;46.396;48.102;2023-09-19T03:58:52;6.63;;;4.70;;
75488;SDS011;64069;46.396;48.102;2023-09-19T04:01:17;8.88;;;5.03;;
75488;SDS011;64069;46.396;48.102;2023-09-19T04:03:44;11.60;;;4.75;;
75488;SDS011;64069;46.396;48.102;2023-09-19T04:06:13;13.70;;;5.40;;
75488;SDS011;64069;46.396;48.102;2023-09-19T04:08:40;10.05;;;4.63;;
75488;SDS011;64069;46.396;48.102;2023-09-19T04:11:06;10.10;;;4.85;;
75488;SDS011;64069;46.396;48.102;2023-09-19T04:13:33;7.05;;;4.22;;
75488;SDS011;64069;46.396;48.102;2023-09-19T04:15:59;7.70;;;4.45;;
75488;SDS011;64069;46.396;48.102;2023-09-19T04:18:25;8.52;;;4.97;;
75488;SDS011;64069;46.396;48.102;2023-09-19T04:20:52;8.10;;;4.97;;
75488;SDS011;64069;46.396;48.102;2023-09-19T04:23:19;9.07;;;5.22;;
75488;SDS011;64069;46.396;48.102;2023-09-19T04:25:46;9.10;;;5.13;;
75488;SDS011;64069;46.396;48.102;2023-09-19T04:28:12;9.50;;;4.88;;
75488;SDS011;64069;46.396;48.102;2023-09-19T04:30:38;10.48;;;5.13;;
75488;SDS011;64069;46.396;48.102;2023-09-19T04:33:05;13.48;;;5.53;;
75488;SDS011;64069;46.396;48.102;2023-09-19T04:35:32;9.05;;;4.88;;
75488;SDS011;64069;46.396;48.102;2023-09-19T04:37:57;9.50;;;5.28;;
75488;SDS011;64069;46.396;48.102;2023-09-19T04:40:23;8.40;;;5.15;;
75488;SDS011;64069;46.396;48.102;2023-09-19T04:42:58;8.23;;;4.38;;
75488;SDS011;64069;46.396;48.102;2023-09-19T04:45:24;12.77;;;5.75;;
75488;SDS011;64069;46.396;48.102;2023-09-19T04:47:50;11.07;;;5.65;;
75488;SDS011;64069;46.396;48.102;2023-09-19T04:50:16;9.30;;;4.95;;
75488;SDS011;64069;46.396;48.102;2023-09-19T04:52:43;7.63;;;4.45;;
75488;SDS011;64069;46.396;48.102;2023-09-19T04:55:13;8.68;;;5.45;;
75488;SDS011;64069;46.396;48.102;2023-09-19T04:57:43;10.60;;;5.35;;
75488;SDS011;64069;46.396;48.102;2023-09-19T05:00:11;8.85;;;5.00;;
75488;SDS011;64069;46.396;48.102;2023-09-19T05:02:40;7.68;;;4.72;;
75488;SDS011;64069;46.396;48.102;2023-09-19T05:05:07;7.57;;;4.65;;
75488;SDS011;64069;46.396;48.102;2023-09-19T05:07:36;8.20;;;4.45;;
75488;SDS011;64069;46.396;48.102;2023-09-19T05:10:02;8.80;;;4.75;;
75488;SDS011;64069;46.396;48.102;2023-09-19T05:12:33;9.93;;;4.55;;
75488;SDS011;64069;46.396;48.102;2023-09-19T05:15:00;8.57;;;4.35;;
75488;SDS011;64069;46.396;48.102;2023-09-19T05:17:27;9.27;;;4.70;;
75488;SDS011;64069;46.396;48.102;2023-09-19T05:19:52;9.85;;;4.85;;
75488;SDS011;64069;46.396;48.102;2023-09-19T05:22:18;8.85;;;4.43;;
75488;SDS011;64069;46.396;48.102;2023-09-19T05:24:44;10.77;;;5.00;;
75488;SDS011;64069;46.396;48.102;2023-09-19T05:27:14;11.85;;;4.40;;
75488;SDS011;64069;46.396;48.102;2023-09-19T05:29:45;10.90;;;4.70;;
75488;SDS011;64069;46.396;48.102;2023-09-19T05:32:11;10.07;;;4.70;;
75488;SDS011;64069;46.396;48.102;2023-09-19T05:34:37;7.93;;;4.32;;
75488;SDS011;64069;46.396;48.102;2023-09-19T05:37:04;6.47;;;4.25;;
75488;SDS011;64069;46.396;48.102;2023-09-19T05:39:33;7.05;;;4.53;;
75488;SDS011;64069;46.396;48.102;2023-09-19T05:41:59;7.20;;;4.20;;
75488;SDS011;64069;46.396;48.102;2023-09-19T05:44:26;8.07;;;4.32;;
75488;SDS011;64069;46.396;48.102;2023-09-19T05:46:53;6.60;;;4.00;;
75488;SDS011;64069;46.396;48.102;2023-09-19T05:49:22;7.47;;;3.88;;
75488;SDS011;64069;46.396;48.102;2023-09-19T05:51:50;7.55;;;4.45;;
75488;SDS011;64069;46.396;48.102;2023-09-19T05:54:19;8.35;;;4.10;;
75488;SDS011;64069;46.396;48.102;2023-09-19T05:56:45;7.10;;;4.32;;
75488;SDS011;64069;46.396;48.102;2023-09-19T05:59:17;6.68;;;3.92;;
75488;SDS011;64069;46.396;48.102;2023-09-19T06:01:44;6.97;;;3.60;;
75488;SDS011;64069;46.396;48.102;2023-09-19T06:04:10;9.27;;;4.20;;
75488;SDS011;64069;46.396;48.102;2023-09-19T06:06:36;6.60;;;4.18;;
75488;SDS011;64069;46.396;48.102;2023-09-19T06:09:05;6.60;;;3.90;;
75488;SDS011;64069;46.396;48.102;2023-09-19T06:11:35;6.20;;;3.80;;
75488;SDS011;64069;46.396;48.102;2023-09-19T06:14:01;7.85;;;4.00;;
75488;SDS011;64069;46.396;48.102;2023-09-19T06:16:28;7.60;;;3.80;;
75488;SDS011;64069;46.396;48.102;2023-09-19T06:18:55;7.32;;;3.65;;
75488;SDS011;64069;46.396;48.102;2023-09-19T06:21:22;7.47;;;3.58;;
75488;SDS011;64069;46.396;48.102;2023-09-19T06:23:48;7.00;;;4.07;;
75488;SDS011;64069;46.396;48.102;2023-09-19T06:26:15;5.78;;;3.92;;
75488;SDS011;64069;46.396;48.102;2023-09-19T06:28:41;10.40;;;4.53;;
75488;SDS011;64069;46.396;48.102;2023-09-19T06:31:07;7.05;;;3.92;;
75488;SDS011;64069;46.396;48.102;2023-09-19T06:33:38;5.53;;;3.70;;
75488;SDS011;64069;46.396;48.102;2023-09-19T06:36:05;6.63;;;3.90;;
75488;SDS011;64069;46.396;48.102;2023-09-19T06:38:32;9.18;;;3.97;;
75488;SDS011;64069;46.396;48.102;2023-09-19T06:41:01;6.22;;;3.90;;
75488;SDS011;64069;46.396;48.102;2023-09-19T06:43:32;8.00;;;3.58;;
75488;SDS011;64069;46.396;48.102;2023-09-19T06:45:59;6.93;;;3.45;;
75488;SDS011;64069;46.396;48.102;2023-09-19T06:48:29;6.45;;;3.72;;
75488;SDS011;64069;46.396;48.102;2023-09-19T06:50:58;9.18;;;4.25;;
75488;SDS011;64069;46.396;48.102;2023-09-19T06:53:28;8.23;;;3.63;;
75488;SDS011;64069;46.396;48.102;2023-09-19T06:55:57;6.00;;;3.65;;
75488;SDS011;64069;46.396;48.102;2023-09-19T06:58:23;5.45;;;3.55;;
75488;SDS011;64069;46.396;48.102;2023-09-19T07:00:49;6.32;;;3.47;;
75488;SDS011;64069;46.396;48.102;2023-09-19T07:03:19;7.95;;;3.47;;
75488;SDS011;64069;46.396;48.102;2023-09-19T07:05:49;7.00;;;3.67;;
75488;SDS011;64069;46.396;48.102;2023-09-19T07:08:15;6.03;;;3.70;;
75488;SDS011;64069;46.396;48.102;2023-09-19T07:10:41;6.40;;;3.40;;
75488;SDS011;64069;46.396;48.102;2023-09-19T07:13:14;6.45;;;3.70;;
75488;SDS011;64069;46.396;48.102;2023-09-19T07:15:42;7.40;;;3.78;;
75488;SDS011;64069;46.396;48.102;2023-09-19T07:18:12;7.53;;;3.92;;
75488;SDS011;64069;46.396;48.102;2023-09-19T07:20:41;6.75;;;3.92;;
75488;SDS011;64069;46.396;48.102;2023-09-19T07:23:20;5.90;;;3.53;;
75488;SDS011;64069;46.396;48.102;2023-09-19T07:25:48;5.78;;;3.28;;
75488;SDS011;64069;46.396;48.102;2023-09-19T07:28:14;11.82;;;4.03;;
75488;SDS011;64069;46.396;48.102;2023-09-19T07:30:41;8.68;;;3.97;;
75488;SDS011;64069;46.396;48.102;2023-09-19T07:33:08;8.27;;;3.88;;
75488;SDS011;64069;46.396;48.102;2023-09-19T07:35:37;13.50;;;4.65;;
75488;SDS011;64069;46.396;48.102;2023-09-19T07:38:06;7.32;;;3.88;;
75488;SDS011;64069;46.396;48.102;2023-09-19T07:40:33;6.60;;;3.72;;
75488;SDS011;64069;46.396;48.102;2023-09-19T07:42:59;9.55;;;4.03;;
75488;SDS011;64069;46.396;48.102;2023-09-19T07:45:30;8.05;;;3.92;;
75488;SDS011;64069;46.396;48.102;2023-09-19T07:47:56;7.47;;;4.10;;
75488;SDS011;64069;46.396;48.102;2023-09-19T07:50:23;6.78;;;3.72;;
75488;SDS011;64069;46.396;48.102;2023-09-19T07:52:51;10.40;;;3.83;;
75488;SDS011;64069;46.396;48.102;2023-09-19T07:55:19;10.75;;;3.88;;
75488;SDS011;64069;46.396;48.102;2023-09-19T07:57:48;6.30;;;4.18;;
75488;SDS011;64069;46.396;48.102;2023-09-19T08:00:15;6.32;;;3.55;;
75488;SDS011;64069;46.396;48.102;2023-09-19T08:02:41;6.47;;;3.75;;
75488;SDS011;64069;46.396;48.102;2023-09-19T08:05:09;5.72;;;3.90;;
75488;SDS011;64069;46.396;48.102;2023-09-19T08:07:40;5.00;;;3.60;;
75488;SDS011;64069;46.396;48.102;2023-09-19T08:10:09;9.32;;;4.30;;
75488;SDS011;64069;46.396;48.102;2023-09-19T08:12:39;11.35;;;8.05;;
75488;SDS011;64069;46.396;48.102;2023-09-19T08:15:15;7.07;;;3.55;;
75488;SDS011;64069;46.396;48.102;2023-09-19T08:17:42;6.65;;;4.15;;
75488;SDS011;64069;46.396;48.102;2023-09-19T08:20:08;10.23;;;3.60;;
75488;SDS011;64069;46.396;48.102;2023-09-19T08:22:48;6.13;;;3.42;;
75488;SDS011;64069;46.396;48.102;2023-09-19T08:25:21;6.13;;;3.80;;
75488;SDS011;64069;46.396;48.102;2023-09-19T08:27:48;12.18;;;4.30;;
75488;SDS011;64069;46.396;48.102;2023-09-19T08:30:16;6.53;;;4.00;;
75488;SDS011;64069;46.396;48.102;2023-09-19T08:33:02;5.95;;;3.80;;
75488;SDS011;64069;46.396;48.102;2023-09-19T08:35:31;6.35;;;4.13;;
75488;SDS011;64069;46.396;48.102;2023-09-19T08:37:57;6.95;;;3.78;;
75488;SDS011;64069;46.396;48.102;2023-09-19T08:40:26;5.97;;;3.40;;
75488;SDS011;64069;46.396;48.102;2023-09-19T08:42:55;5.15;;;3.38;;
75488;SDS011;64069;46.396;48.102;2023-09-19T08:45:22;6.10;;;3.45;;
75488;SDS011;64069;46.396;48.102;2023-09-19T08:50:49;6.43;;;3.60;;
75488;SDS011;64069;46.396;48.102;2023-09-19T08:53:42;5.82;;;3.17;;
75488;SDS011;64069;46.396;48.102;2023-09-19T08:56:24;5.43;;;3.17;;
75488;SDS011;64069;46.396;48.102;2023-09-19T08:58:55;7.45;;;3.88;;
75488;SDS011;64069;46.396;48.102;2023-09-19T09:01:39;5.85;;;3.50;;
75488;SDS011;64069;46.396;48.102;2023-09-19T09:04:11;9.45;;;3.30;;
75488;SDS011;64069;46.396;48.102;2023-09-19T09:06:38;48.78;;;15.60;;
75488;SDS011;64069;46.396;48.102;2023-09-19T09:09:06;86.20;;;43.67;;
75488;SDS011;64069;46.396;48.102;2023-09-19T09:11:34;37.63;;;15.50;;
75488;SDS011;64069;46.396;48.102;2023-09-19T09:14:05;20.20;;;9.27;;
75488;SDS011;64069;46.396;48.102;2023-09-19T09:16:32;16.83;;;7.25;;
75488;SDS011;64069;46.396;48.102;2023-09-19T09:18:59;16.85;;;7.97;;
75488;SDS011;64069;46.396;48.102;2023-09-19T09:21:26;8.25;;;3.60;;
75488;SDS011;64069;46.396;48.102;2023-09-19T09:23:55;7.40;;;3.80;;
75488;SDS011;64069;46.396;48.102;2023-09-19T09:29:08;8.13;;;3.90;;
75488;SDS011;64069;46.396;48.102;2023-09-19T09:31:35;7.68;;;3.60;;
75488;SDS011;64069;46.396;48.102;2023-09-19T09:34:03;6.43;;;3.60;;
75488;SDS011;64069;46.396;48.102;2023-09-19T09:36:36;6.50;;;3.63;;
75488;SDS011;64069;46.396;48.102;2023-09-19T09:39:07;6.82;;;3.92;;
75488;SDS011;64069;46.396;48.102;2023-09-19T09:41:50;5.07;;;3.33;;
75488;SDS011;64069;46.396;48.102;2023-09-19T09:44:17;5.50;;;3.25;;
75488;SDS011;64069;46.396;48.102;2023-09-19T09:46:47;7.07;;;3.50;;
75488;SDS011;64069;46.396;48.102;2023-09-19T09:49:26;8.18;;;3.40;;
75488;SDS011;64069;46.396;48.102;2023-09-19T09:54:58;5.45;;;3.17;;
75488;SDS011;64069;46.396;48.102;2023-09-19T09:57:27;6.68;;;3.47;;
75488;SDS011;64069;46.396;48.102;2023-09-19T09:59:56;5.47;;;3.53;;
75488;SDS011;64069;46.396;48.102;2023-09-19T10:02:30;4.80;;;2.92;;
75488;SDS011;64069;46.396;48.102;2023-09-19T10:05:18;7.07;;;3.45;;
75488;SDS011;64069;46.396;48.102;2023-09-19T10:07:46;11.15;;;3.95;;
75488;SDS011;64069;46.396;48.102;2023-09-19T10:10:29;9.27;;;3.80;;
75488;SDS011;64069;46.396;48.102;2023-09-19T10:13:06;5.78;;;3.95;;
75488;SDS011;64069;46.396;48.102;2023-09-19T10:15:39;9.85;;;3.92;;
75488;SDS011;64069;46.396;48.102;2023-09-19T10:18:19;7.18;;;3.53;;
75488;SDS011;64069;46.396;48.102;2023-09-19T10:20:48;7.22;;;3.47;;
75488;SDS011;64069;46.396;48.102;2023-09-19T10:23:19;7.80;;;3.30;;
75488;SDS011;64069;46.396;48.102;2023-09-19T10:25:49;6.30;;;3.95;;
75488;SDS011;64069;46.396;48.102;2023-09-19T10:28:16;7.50;;;4.10;;
75488;SDS011;64069;46.396;48.102;2023-09-19T10:30:49;6.22;;;4.13;;
75488;SDS011;64069;46.396;48.102;2023-09-19T10:33:19;8.18;;;3.95;;
75488;SDS011;64069;46.396;48.102;2023-09-19T10:35:50;5.47;;;3.55;;
75488;SDS011;64069;46.396;48.102;2023-09-19T10:38:39;6.32;;;3.40;;
75488;SDS011;64069;46.396;48.102;2023-09-19T10:41:11;7.80;;;3.53;;
75488;SDS011;64069;46.396;48.102;2023-09-19T10:43:42;7.53;;;3.55;;
75488;SDS011;64069;46.396;48.102;2023-09-19T10:48:40;13.52;;;3.45;;
75488;SDS011;64069;46.396;48.102;2023-09-19T10:51:20;6.75;;;3.13;;
75488;SDS011;64069;46.396;48.102;2023-09-19T10:53:55;6.30;;;3.38;;
75488;SDS011;64069;46.396;48.102;2023-09-19T10:56:29;5.65;;;3.55;;
75488;SDS011;64069;46.396;48.102;2023-09-19T10:59:09;6.18;;;3.20;;
75488;SDS011;64069;46.396;48.102;2023-09-19T11:01:50;6.47;;;3.20;;
75488;SDS011;64069;46.396;48.102;2023-09-19T11:04:31;5.82;;;3.58;;
75488;SDS011;64069;46.396;48.102;2023-09-19T11:09:43;5.68;;;3.38;;
75488;SDS011;64069;46.396;48.102;2023-09-19T11:15:09;5.22;;;3.25;;
75488;SDS011;64069;46.396;48.102;2023-09-19T11:17:58;7.50;;;2.95;;
75488;SDS011;64069;46.396;48.102;2023-09-19T11:20:28;8.07;;;3.38;;
75488;SDS011;64069;46.396;48.102;2023-09-19T11:25:43;5.88;;;3.40;;
75488;SDS011;64069;46.396;48.102;2023-09-19T11:28:33;5.45;;;3.50;;
75488;SDS011;64069;46.396;48.102;2023-09-19T11:34:40;7.78;;;3.28;;
75488;SDS011;64069;46.396;48.102;2023-09-19T11:40:10;7.53;;;3.75;;
75488;SDS011;64069;46.396;48.102;2023-09-19T11:42:47;6.32;;;3.45;;
75488;SDS011;64069;46.396;48.102;2023-09-19T11:48:23;6.03;;;2.80;;
75488;SDS011;64069;46.396;48.102;2023-09-19T11:50:52;6.65;;;3.40;;
75488;SDS011;64069;46.396;48.102;2023-09-19T11:53:20;6.78;;;3.72;;
75488;SDS011;64069;46.396;48.102;2023-09-19T11:55:48;6.68;;;3.50;;
75488;SDS011;64069;46.396;48.102;2023-09-19T11:58:16;6.55;;;3.50;;
75488;SDS011;64069;46.396;48.102;2023-09-19T12:00:46;6.18;;;2.95;;
75488;SDS011;64069;46.396;48.102;2023-09-19T12:03:24;5.72;;;3.28;;
75488;SDS011;64069;46.396;48.102;2023-09-19T12:08:25;5.93;;;3.55;;
75488;SDS011;64069;46.396;48.102;2023-09-19T12:10:52;4.97;;;3.40;;
75488;SDS011;64069;46.396;48.102;2023-09-19T12:13:22;8.90;;;3.97;;
75488;SDS011;64069;46.396;48.102;2023-09-19T12:15:52;5.72;;;3.42;;
75488;SDS011;64069;46.396;48.102;2023-09-19T12:18:28;5.32;;;3.33;;
75488;SDS011;64069;46.396;48.102;2023-09-19T12:20:55;5.53;;;2.95;;
75488;SDS011;64069;46.396;48.102;2023-09-19T12:23:23;5.05;;;3.13;;
75488;SDS011;64069;46.396;48.102;2023-09-19T12:25:51;6.85;;;3.47;;
75488;SDS011;64069;46.396;48.102;2023-09-19T12:28:23;5.47;;;3.50;;
75488;SDS011;64069;46.396;48.102;2023-09-19T12:30:52;5.45;;;3.28;;
75488;SDS011;64069;46.396;48.102;2023-09-19T12:33:20;5.93;;;3.83;;
75488;SDS011;64069;46.396;48.102;2023-09-19T12:35:51;12.02;;;3.72;;
75488;SDS011;64069;46.396;48.102;2023-09-19T12:38:24;9.32;;;3.85;;
75488;SDS011;64069;46.396;48.102;2023-09-19T12:40:57;6.45;;;3.35;;
75488;SDS011;64069;46.396;48.102;2023-09-19T12:43:31;5.80;;;3.92;;
75488;SDS011;64069;46.396;48.102;2023-09-19T12:46:00;7.25;;;4.25;;
75488;SDS011;64069;46.396;48.102;2023-09-19T12:48:28;19.77;;;5.05;;
75488;SDS011;64069;46.396;48.102;2023-09-19T12:51:16;8.15;;;3.90;;
75488;SDS011;64069;46.396;48.102;2023-09-19T12:53:56;6.00;;;3.22;;
75488;SDS011;64069;46.396;48.102;2023-09-19T12:56:23;9.20;;;3.80;;
75488;SDS011;64069;46.396;48.102;2023-09-19T12:58:55;5.72;;;3.50;;
75488;SDS011;64069;46.396;48.102;2023-09-19T13:01:24;8.00;;;3.05;;
75488;SDS011;64069;46.396;48.102;2023-09-19T13:04:14;5.90;;;3.40;;
75488;SDS011;64069;46.396;48.102;2023-09-19T13:06:46;7.32;;;3.65;;
75488;SDS011;64069;46.396;48.102;2023-09-19T13:09:17;9.18;;;3.38;;
75488;SDS011;64069;46.396;48.102;2023-09-19T13:11:47;5.60;;;2.92;;
75488;SDS011;64069;46.396;48.102;2023-09-19T13:14:16;8.57;;;3.28;;
75488;SDS011;64069;46.396;48.102;2023-09-19T13:17:04;5.38;;;3.28;;
75488;SDS011;64069;46.396;48.102;2023-09-19T13:19:42;10.23;;;3.22;;
75488;SDS011;64069;46.396;48.102;2023-09-19T13:22:39;10.63;;;4.10;;
75488;SDS011;64069;46.396;48.102;2023-09-19T13:25:29;5.30;;;3.25;;
75488;SDS011;64069;46.396;48.102;2023-09-19T13:27:58;7.82;;;4.45;;
75488;SDS011;64069;46.396;48.102;2023-09-19T13:30:26;13.30;;;5.03;;
75488;SDS011;64069;46.396;48.102;2023-09-19T13:33:06;7.68;;;4.03;;
75488;SDS011;64069;46.396;48.102;2023-09-19T13:35:37;12.23;;;5.70;;
75488;SDS011;64069;46.396;48.102;2023-09-19T13:38:06;10.93;;;5.35;;
75488;SDS011;64069;46.396;48.102;2023-09-19T13:40:38;7.90;;;4.47;;
75488;SDS011;64069;46.396;48.102;2023-09-19T13:43:07;9.47;;;5.60;;
75488;SDS011;64069;46.396;48.102;2023-09-19T13:45:35;7.65;;;4.80;;
75488;SDS011;64069;46.396;48.102;2023-09-19T13:48:02;6.63;;;3.85;;
75488;SDS011;64069;46.396;48.102;2023-09-19T13:50:28;6.93;;;3.97;;
75488;SDS011;64069;46.396;48.102;2023-09-19T13:52:55;6.72;;;4.30;;
75488;SDS011;64069;46.396;48.102;2023-09-19T13:55:21;5.60;;;4.20;;
75488;SDS011;64069;46.396;48.102;2023-09-19T13:57:47;7.47;;;4.10;;
75488;SDS011;64069;46.396;48.102;2023-09-19T14:00:20;6.43;;;4.30;;
75488;SDS011;64069;46.396;48.102;2023-09-19T14:02:49;6.05;;;3.90;;
75488;SDS011;64069;46.396;48.102;2023-09-19T14:05:16;6.75;;;3.50;;
75488;SDS011;64069;46.396;48.102;2023-09-19T14:07:44;6.97;;;3.92;;
75488;SDS011;64069;46.396;48.102;2023-09-19T14:10:11;11.23;;;5.55;;
75488;SDS011;64069;46.396;48.102;2023-09-19T14:12:38;9.50;;;4.70;;
75488;SDS011;64069;46.396;48.102;2023-09-19T14:15:07;8.68;;;5.00;;
75488;SDS011;64069;46.396;48.102;2023-09-19T14:17:35;15.93;;;7.22;;
75488;SDS011;64069;46.396;48.102;2023-09-19T14:20:01;14.30;;;7.32;;
75488;SDS011;64069;46.396;48.102;2023-09-19T14:22:30;17.00;;;8.27;;
75488;SDS011;64069;46.396;48.102;2023-09-19T14:24:57;21.77;;;10.77;;
75488;SDS011;64069;46.396;48.102;2023-09-19T14:27:25;22.00;;;11.13;;
75488;SDS011;64069;46.396;48.102;2023-09-19T14:29:51;22.02;;;11.38;;
75488;SDS011;64069;46.396;48.102;2023-09-19T14:32:19;25.50;;;11.20;;
75488;SDS011;64069;46.396;48.102;2023-09-19T14:34:46;21.55;;;10.15;;
75488;SDS011;64069;46.396;48.102;2023-09-19T14:37:12;30.00;;;12.98;;
75488;SDS011;64069;46.396;48.102;2023-09-19T14:39:40;22.60;;;12.45;;
75488;SDS011;64069;46.396;48.102;2023-09-19T14:42:10;26.27;;;12.13;;
75488;SDS011;64069;46.396;48.102;2023-09-19T14:44:37;31.08;;;13.23;;
75488;SDS011;64069;46.396;48.102;2023-09-19T14:47:04;22.75;;;11.57;;
75488;SDS011;64069;46.396;48.102;2023-09-19T14:49:34;26.50;;;12.10;;
75488;SDS011;64069;46.396;48.102;2023-09-19T14:52:03;17.95;;;8.45;;
75488;SDS011;64069;46.396;48.102;2023-09-19T14:54:30;16.92;;;7.85;;
75488;SDS011;64069;46.396;48.102;2023-09-19T14:56:56;15.63;;;8.10;;
75488;SDS011;64069;46.396;48.102;2023-09-19T14:59:30;19.52;;;11.68;;
75488;SDS011;64069;46.396;48.102;2023-09-19T15:01:57;24.90;;;11.88;;
75488;SDS011;64069;46.396;48.102;2023-09-19T15:04:24;31.20;;;13.27;;
75488;SDS011;64069;46.396;48.102;2023-09-19T15:06:51;26.60;;;13.98;;
75488;SDS011;64069;46.396;48.102;2023-09-19T15:09:23;31.13;;;12.75;;
75488;SDS011;64069;46.396;48.102;2023-09-19T15:14:21;15.00;;;8.23;;
75488;SDS011;64069;46.396;48.102;2023-09-19T15:16:50;18.85;;;10.40;;
75488;SDS011;64069;46.396;48.102;2023-09-19T15:19:16;24.05;;;8.60;;
75488;SDS011;64069;46.396;48.102;2023-09-19T15:21:43;15.85;;;9.18;;
75488;SDS011;64069;46.396;48.102;2023-09-19T15:24:09;28.42;;;11.40;;
75488;SDS011;64069;46.396;48.102;2023-09-19T15:26:36;26.70;;;11.30;;
75488;SDS011;64069;46.396;48.102;2023-09-19T15:29:06;33.13;;;12.07;;
75488;SDS011;64069;46.396;48.102;2023-09-19T15:31:32;26.23;;;13.05;;
75488;SDS011;64069;46.396;48.102;2023-09-19T15:33:59;29.38;;;12.40;;